Terminal Aerodrome Forecast
Issued by NWS Kansas City/Pleasant Hill, MO

Home | Current Version | Previous Version | Text Only | Print | Product List | Glossary On
Versions: 1 2 3 4 5 6 7 8 9 10 11 12 13
000
FTUS43 KEAX 240500 RRA
TAFMCI
TAF
KMCI 240541Z 2406/2506 21010KT P6SM SKC
     FM241400 28012G20KT P6SM FEW030
     FM242200 35005KT P6SM SCT050=

USA.gov is the U.S. government's official web portal to all federal, state and local government web resources and services.